Terminal Aerodrome Forecast
Issued by NWS

Home | Current Version | Previous Version | Text Only | Print | Product List | Glossary On
Versions: 1 2 3 4 5 6 7 8 9 10 11 12 13 14 15 16 17 18 19
000
FTUS41 KPBZ 292333
TAFBVI
TAF
KBVI 292333Z 3000/3024 VRB04KT P6SM -SHRA BKN040
      TEMPO 3000/3002 3SM SHRA BKN030
     FM300800 17004KT P6SM BKN015
     FM301400 21010KT P6SM BKN025
     FM302000 22010G18KT P6SM VCTS BKN035CB
      AMD NOT SKED 3002/3012=

USA.gov is the U.S. government's official web portal to all federal, state and local government web resources and services.